アタテュルク国際空港(イスタンブル)の過去48時間の天気

アタテュルク国際空港(イスタンブル) (Istanbul / Ataturk)

現在時刻: 12/6 23:49 +03 (12/6 20:49 UTC) 以下の時間は現地時間です。

過去48時間のMETAR気象情報
時間 風向 風速(m/s) 視程 気温(℃) 湿度(%) 気圧(hPa) 天気現象
6 23:20 北北西 2 10km以上 5 87 1024
6 22:50 2 10km以上 5 87 1024
6 22:20 2 10km以上 5 87 1024
6 21:50 北北西 2 10km以上 6 81 1024
6 21:20 北北東 2 10km以上 6 76 1025
6 20:50 北北東 2 10km以上 7 70 1025
6 20:20 北北東 3 10km以上 9 66 1025
6 19:50 北東 3 10km以上 9 66 1025
6 19:20 北東 3 10km以上 10 66 1025
6 18:50 北東 3 10km以上 10 66 1025
6 18:20 北東 4 10km以上 10 66 1025
6 17:50 北東 2 10km以上 10 66 1025
6 17:20 西 1 10km以上 11 58 1025
6 16:50 東南東 2 10km以上 11 62 1025
6 16:20 東南東 2 10km以上 12 54 1025
6 15:50 南東 3 10km以上 12 54 1025
6 15:20 南東 3 10km以上 12 54 1025
6 14:50 南東 3 10km以上 11 58 1025
6 14:20 南東 3 10km以上 11 54 1026
6 13:50 南東 2 10km以上 11 54 1026
6 12:50 東南東 4 10km以上 11 54 1027
6 12:20 東南東 3 10km以上 11 58 1027
6 11:50 東南東 3 10km以上 10 62 1028
6 11:20 3 10km以上 10 62 1028
6 10:50 東南東 3 10km以上 10 62 1028
6 10:20 3 10km以上 10 66 1028
6 09:50 東北東 3 10km以上 9 71 1028
6 09:20 北東 3 10km以上 8 76 1028
6 08:50 北北東 2 10km以上 7 76 1028
6 08:20 北東 3 10km以上 7 76 1028
6 07:50 北東 3 10km以上 7 76 1028
6 07:20 北東 3 10km以上 7 76 1028
6 06:50 北北東 2 10km以上 4 81 1028
6 06:20 3 10km以上 5 87 1028
6 05:50 3 10km以上 5 81 1028
6 05:20 3 10km以上 5 81 1028
6 04:50 北北東 3 10km以上 7 76 1028
6 04:20 北東 3 10km以上 8 71 1028
6 03:50 北東 3 10km以上 8 71 1029
6 03:20 北東 4 10km以上 8 71 1028
6 02:50 北東 3 10km以上 8 71 1029
6 02:20 北東 4 10km以上 8 71 1029
6 01:50 北東 4 10km以上 8 71 1029
6 01:20 北東 4 10km以上 8 71 1029
6 00:50 東北東 3 10km以上 8 71 1029
6 00:20 北東 4 10km以上 9 71 1029
5 23:50 北東 3 10km以上 9 71 1029
5 23:20 北東 4 10km以上 9 71 1029
5 22:50 北東 5 10km以上 9 76 1029
5 22:20 東北東 4 10km以上 9 76 1029
5 21:50 東北東 4 10km以上 9 76 1029
5 21:20 北東 5 10km以上 9 76 1029
5 20:50 東北東 5 10km以上 9 76 1029
5 20:20 東北東 6 10km以上 10 71 1029
5 19:50 北東 5 10km以上 10 71 1029
5 19:20 北東 4 10km以上 9 76 1029
5 18:50 東北東 5 10km以上 9 76 1029
5 18:20 東北東 3 10km以上 9 76 1029
5 17:50 東北東 4 10km以上 9 81 1029
5 17:20 北東 6 10km以上 9 76 1029
5 16:50 北東 7 10km以上 9 76 1029
5 16:20 北東 7 10km以上 10 66 1029
5 15:50 北東 7 10km以上 10 66 1029
5 15:20 北東 7 10km以上 10 66 1029
5 14:50 北東 6 10km以上 10 66 1029
5 14:20 北東 7 10km以上 10 66 1029
5 13:50 北東 7 10km以上 10 66 1029
5 13:20 北東 7 10km以上 10 66 1029
5 12:50 北東 6 10km以上 10 71 1030
5 12:20 北北東 6 10km以上 10 71 1030
5 11:50 北北東 6 10km以上 9 71 1030
5 11:20 北東 4 10km以上 9 71 1031
5 10:50 北北東 4 10km以上 9 66 1030
5 10:20 北北東 3 10km以上 8 71 1031
5 09:50 3 10km以上 8 76 1030
5 09:20 3 10km以上 7 76 1030
5 08:50 4 10km以上 7 76 1030
5 08:20 北北東 6 10km以上 7 76 1030
5 07:50 北北東 4 10km以上 6 76 1030
5 07:20 北北東 5 10km以上 7 70 1030
5 06:50 北北東 4 10km以上 7 70 1030
5 06:20 北北東 3 10km以上 7 70 1029
5 05:50 北北東 3 10km以上 7 70 1029
5 05:20 北北東 4 10km以上 7 70 1029
5 04:50 北北東 4 10km以上 7 66 1029
5 04:20 北北東 4 10km以上 8 53 1029
5 03:50 北東 4 10km以上 8 57 1029
5 03:20 北東 5 10km以上 8 57 1029
5 02:50 北東 5 10km以上 8 61 1029
5 02:20 北東 4 10km以上 8 61 1029
5 01:50 北北東 5 10km以上 8 66 1029
5 01:20 北東 5 10km以上 8 66 1029
5 00:50 北東 6 10km以上 7 76 1029
5 00:20 北東 6 10km以上 8 71 1029
4 23:50 北北東 6 10km以上 8 71 1029
LTBA 062020Z 34004KT CAVOK 05/03 Q1024 NOSIG RMK RWY17L 35003KT RWY05 VRB02KT RWY23 03004KT 350V080
LTBA 061950Z 36004KT CAVOK 05/03 Q1024 NOSIG RMK RWY17L 35003KT RWY05 VRB02KT RWY23 04002KT
LTBA 061920Z 35003KT CAVOK 05/03 Q1024 NOSIG RMK RWY17L 34003KT RWY05 36002KT RWY23 04003KT
LTBA 061850Z 34003KT CAVOK 06/03 Q1024 NOSIG RMK RWY17L 34003KT 330V030 RWY05 35002KT RWY23 04003KT
LTBA 061820Z 02003KT CAVOK 06/02 Q1025 NOSIG RMK RWY17L 02003KT 360V060 RWY05 02002KT RWY23 06004KT
LTBA 061750Z 02003KT CAVOK 07/02 Q1025 NOSIG RMK RWY17L 02003KT 350V060 RWY05 02004KT RWY23 04004KT
LTBA 061720Z 03005KT CAVOK 09/03 Q1025 NOSIG RMK RWY17L 04004KT RWY05 02006KT RWY23 05005KT
LTBA 061650Z 04005KT CAVOK 09/03 Q1025 NOSIG RMK RWY17L 05005KT RWY05 04005KT RWY23 06006KT
LTBA 061620Z 05005KT CAVOK 10/04 Q1025 NOSIG RMK RWY17L 05005KT 020V080 RWY05 04006KT RWY23 06007KT
LTBA 061550Z 05006KT CAVOK 10/04 Q1025 NOSIG RMK RWY17L 04008KT RWY05 04006KT RWY23 06007KT
LTBA 061520Z 04007KT CAVOK 10/04 Q1025 NOSIG RMK RWY17L 04008KT RWY05 03008KT RWY23 06007KT
LTBA 061450Z 04003KT 340V070 CAVOK 10/04 Q1025 NOSIG RMK RWY17L 04008KT 010V080 RWY05 VRB02KT RWY23 05007KT
LTBA 061420Z 27001KT 9999 FEW035 11/03 Q1025 NOSIG RMK RWY17L VRB02KT RWY05 VRB01KT RWY23 12002KT
LTBA 061350Z 12003KT 9999 FEW035 11/04 Q1025 NOSIG RMK RWY17L VRB02KT RWY05 VRB02KT RWY23 14004KT
LTBA 061320Z 12004KT 9999 FEW035 12/03 Q1025 NOSIG RMK RWY17L 13005KT RWY05 11004KT RWY23 13005KT 100V160
LTBA 061250Z 13006KT 9999 FEW035 12/03 Q1025 NOSIG RMK RWY17L 13005KT 100V160 RWY05 11005KT 070V130 RWY23 14005KT 100V170
LTBA 061220Z 13006KT 9999 FEW035 12/03 Q1025 NOSIG RMK RWY17L 13005KT 090V160 RWY05 11005KT 090V170 RWY23 14005KT 100V180
LTBA 061150Z 13006KT 9999 FEW035 11/03 Q1025 NOSIG RMK RWY17L 13007KT RWY05 13006KT 090V160 RWY23 15006KT 110V180
LTBA 061120Z 13006KT 9999 FEW035 11/02 Q1026 NOSIG RMK RWY17L 13006KT 100V160 RWY05 11005KT 080V150 RWY23 14006KT 100V170
LTBA 061050Z 13004KT 110V170 9999 FEW035 11/02 Q1026 NOSIG RMK RWY17L 13006KT 100V160 RWY05 11004KT 060V150 RWY23 12005KT 100V160
LTBA 060950Z 11007KT 080V140 CAVOK 11/02 Q1027 NOSIG RMK RWY17L 11005KT 070V150 RWY05 08007KT 040V110 RWY23 12007KT
LTBA 060920Z 11006KT 070V140 CAVOK 11/03 Q1027 NOSIG RMK RWY17L 12006KT 080V160 RWY05 08006KT 050V110 RWY23 12007KT 070V140
LTBA 060850Z 11006KT CAVOK 10/03 Q1028 NOSIG RMK RWY17L 12004KT RWY05 07005KT 040V110 RWY23 11006KT 070V150
LTBA 060820Z 09006KT CAVOK 10/03 Q1028 NOSIG RMK RWY17L 13004KT 090V200 RWY05 10005KT 060V130 RWY23 12006KT
LTBA 060750Z 11006KT CAVOK 10/03 Q1028 NOSIG RMK RWY17L 09004KT 040V160 RWY05 11006KT 070V130 RWY23 12006KT
LTBA 060720Z 10006KT CAVOK 10/04 Q1028 NOSIG RMK RWY17L 10005KT 070V130 RWY05 08005KT RWY23 09008KT
LTBA 060650Z 06005KT CAVOK 09/04 Q1028 NOSIG RMK RWY17L 06004KT RWY05 04005KT RWY23 07004KT 050V110
LTBA 060620Z 05006KT CAVOK 08/04 Q1028 NOSIG RMK RWY17L 06003KT 030V110 RWY05 03005KT RWY23 06006KT
LTBA 060550Z 03004KT CAVOK 07/03 Q1028 NOSIG RMK RWY17L VRB01KT RWY05 02004KT RWY23 04005KT
LTBA 060520Z 05006KT CAVOK 07/03 Q1028 NOSIG RMK RWY17L 05003KT RWY05 03006KT RWY23 05006KT
LTBA 060450Z 05006KT CAVOK 07/03 Q1028 NOSIG RMK RWY17L 05004KT RWY05 03007KT RWY23 06007KT
LTBA 060420Z 05006KT CAVOK 07/03 Q1028 NOSIG RMK RWY17L 06003KT RWY05 04006KT RWY23 06006KT
LTBA 060350Z 03004KT CAVOK 04/01 Q1028 NOSIG RMK RWY17L 01002KT RWY05 02004KT RWY23 04004KT
LTBA 060320Z 01006KT CAVOK 05/03 Q1028 NOSIG RMK RWY17L 36005KT RWY05 02004KT 360V100 RWY23 02004KT
LTBA 060250Z 01005KT CAVOK 05/02 Q1028 NOSIG RMK RWY17L 35004KT RWY05 36004KT RWY23 02005KT
LTBA 060220Z 01005KT 9999 SCT035 05/02 Q1028 NOSIG RMK RWY17L 01005KT RWY05 01006KT RWY23 03006KT 340V050
LTBA 060150Z 02005KT 9999 SCT035 07/03 Q1028 NOSIG RMK RWY17L 01003KT 340V050 RWY05 02006KT RWY23 04007KT 360V060
LTBA 060120Z 04006KT 9999 SCT035 08/03 Q1028 NOSIG RMK RWY17L 04003KT 010V080 RWY05 03006KT RWY23 05006KT
LTBA 060050Z 05006KT 9999 SCT035 08/03 Q1029 NOSIG RMK RWY17L 06004KT 030V090 RWY05 04005KT RWY23 07006KT
LTBA 060020Z 04007KT CAVOK 08/03 Q1028 NOSIG RMK RWY17L 04006KT RWY05 03007KT RWY23 05007KT
LTBA 052350Z 04006KT CAVOK 08/03 Q1029 NOSIG RMK RWY17L 04005KT RWY05 03007KT RWY23 06008KT
LTBA 052320Z 04008KT CAVOK 08/03 Q1029 NOSIG RMK RWY17L 05006KT RWY05 03009KT RWY23 06009KT
LTBA 052250Z 04007KT CAVOK 08/03 Q1029 NOSIG RMK RWY17L 05005KT RWY05 03008KT RWY23 06007KT
LTBA 052220Z 05007KT CAVOK 08/03 Q1029 NOSIG RMK RWY17L 06006KT RWY05 04008KT RWY23 06007KT
LTBA 052150Z 06006KT CAVOK 08/03 Q1029 NOSIG RMK RWY17L 05005KT RWY05 04007KT RWY23 07008KT
LTBA 052120Z 05008KT 9999 SCT030 09/04 Q1029 NOSIG RMK RWY17L 06007KT RWY05 03008KT RWY23 06008KT
LTBA 052050Z 05006KT 9999 SCT030 09/04 Q1029 NOSIG RMK RWY17L 07006KT 040V110 RWY05 04006KT RWY23 07007KT
LTBA 052020Z 05008KT 9999 SCT030 09/04 Q1029 NOSIG RMK RWY17L 06006KT 030V110 RWY05 05008KT RWY23 07007KT
LTBA 051950Z 05009KT 9999 SCT030 09/05 Q1029 NOSIG RMK RWY17L 06006KT RWY05 04010KT RWY23 07009KT
LTBA 051920Z 06007KT 9999 SCT030 09/05 Q1029 NOSIG RMK RWY17L 06006KT 030V090 RWY05 05008KT RWY23 08008KT
LTBA 051850Z 06008KT 9999 SCT035 09/05 Q1029 NOSIG RMK RWY17L 07008KT RWY05 05008KT RWY23 07010KT
LTBA 051820Z 05009KT 9999 BKN035 09/05 Q1029 NOSIG RMK RWY17L 05010KT RWY05 04008KT RWY23 07010KT
LTBA 051750Z 06009KT 9999 BKN030 09/05 Q1029 NOSIG RMK RWY17L 06010KT RWY05 04012KT RWY23 08010KT
LTBA 051720Z 06011KT 9999 BKN025 10/05 Q1029 NOSIG RMK RWY17L 08011KT 050V110 RWY05 04011KT RWY23 07009KT
LTBA 051650Z 05010KT 9999 BKN025 10/05 Q1029 NOSIG RMK RWY17L 05008KT 030V110 RWY05 04010KT RWY23 07010KT
LTBA 051620Z 05007KT 9999 BKN025 09/05 Q1029 NOSIG RMK RWY17L 04008KT RWY05 04008KT RWY23 07007KT
LTBA 051550Z 06009KT 9999 BKN030 09/05 Q1029 NOSIG RMK RWY17L 07007KT 040V110 RWY05 04010KT RWY23 08010KT
LTBA 051520Z 06006KT 020V090 9999 FEW014 BKN030 09/05 Q1029 NOSIG RMK RWY17L 05008KT 010V080 RWY05 05006KT RWY23 08008KT
LTBA 051450Z 06007KT 030V110 9999 FEW014 BKN030 09/06 Q1029 NOSIG RMK RWY17L 06008KT 020V080 RWY05 04008KT RWY23 06009KT 020V090
LTBA 051420Z 05012KT 020V080 9999 FEW015 BKN030 09/05 Q1029 NOSIG RMK RWY17L 04011KT 010V080 RWY05 04007KT RWY23 07008KT
LTBA 051350Z 05013KT 030V100 9999 FEW015 BKN030 09/05 Q1029 NOSIG RMK RWY17L 05013KT RWY05 04011KT RWY23 06013KT
LTBA 051320Z 05014KT 9999 BKN030 10/04 Q1029 NOSIG RMK RWY17L 05015KT 020V080 RWY05 03015KT RWY23 06017KT
LTBA 051250Z 04014KT 9999 BKN030 10/04 Q1029 NOSIG RMK RWY17L 04014KT RWY05 03015KT RWY23 05013KT
LTBA 051220Z 05014KT 9999 BKN030 10/04 Q1029 NOSIG RMK RWY17L 03012KT 360V060 RWY05 03016KT RWY23 04014G25KT 010V080
LTBA 051150Z 04011KT 010V080 9999 BKN030 10/04 Q1029 NOSIG RMK RWY17L 03011KT 360V070 RWY05 03015KT RWY23 05014KT
LTBA 051120Z 04013KT 360V060 9999 BKN030 10/04 Q1029 NOSIG RMK RWY17L 04013KT RWY05 02014KT RWY23 04015KT
LTBA 051050Z 05014KT 9999 BKN030 10/04 Q1029 NOSIG RMK RWY17L 04012KT RWY05 03016KT RWY23 05015KT 020V080
LTBA 051020Z 05014KT 9999 BKN030 10/04 Q1029 NOSIG RMK RWY17L 04014KT 020V080 RWY05 04016KT RWY23 06014KT
LTBA 050950Z 04011KT 9999 BKN030 10/05 Q1030 NOSIG RMK RWY17L 03012KT 360V060 RWY05 03011KT 350V050 RWY23 04012KT
LTBA 050920Z 03012KT 9999 FEW030 BKN100 10/05 Q1030 NOSIG RMK RWY17L 02012KT 350V050 RWY05 02013KT RWY23 04011KT 010V080
LTBA 050850Z 03011KT 010V070 9999 SCT035 BKN100 09/04 Q1030 NOSIG RMK RWY17L 04012KT 010V070 RWY05 02011KT RWY23 05012KT
LTBA 050820Z 04007KT 9999 SCT035 BKN100 09/04 Q1031 NOSIG RMK RWY17L 04011KT 010V070 RWY05 03010KT RWY23 05009KT 020V080
LTBA 050750Z 03008KT 9999 SCT035 BKN100 09/03 Q1030 NOSIG RMK RWY17L 02006KT 360V070 RWY05 01008KT RWY23 03008KT 360V060
LTBA 050720Z 03005KT 360V060 9999 FEW035 08/03 Q1031 NOSIG RMK RWY17L 03005KT 350V050 RWY05 01005KT 340V040 RWY23 05006KT 010V070
LTBA 050650Z 36006KT 9999 FEW035 08/04 Q1030 NOSIG RMK RWY17L 35006KT RWY05 36006KT RWY23 03006KT
LTBA 050620Z 35005KT 9999 FEW035 07/03 Q1030 NOSIG RMK RWY17L 35006KT RWY05 35007KT RWY23 01005KT
LTBA 050550Z 01008KT 9999 FEW035 07/03 Q1030 NOSIG RMK RWY17L 36006KT 340V040 RWY05 36007KT 330V030 RWY23 03008KT 350V080
LTBA 050520Z 02011KT 9999 FEW035 07/03 Q1030 NOSIG RMK RWY17L 01011KT RWY05 01010KT RWY23 03011KT
LTBA 050450Z 02007KT 350V060 CAVOK 06/02 Q1030 NOSIG RMK RWY17L 02007KT RWY05 01008KT RWY23 03009KT 350V060
LTBA 050420Z 02009KT CAVOK 07/02 Q1030 NOSIG RMK RWY17L 02009KT RWY05 01010KT RWY23 04010KT 010V070
LTBA 050350Z 03007KT 360V060 CAVOK 07/02 Q1030 NOSIG RMK RWY17L 03006KT 360V070 RWY05 01007KT RWY23 04008KT
LTBA 050320Z 03006KT CAVOK 07/02 Q1029 NOSIG RMK RWY17L 02006KT RWY05 01006KT RWY23 04007KT
LTBA 050250Z 03006KT 360V060 CAVOK 07/02 Q1029 NOSIG RMK RWY17L 03006KT RWY05 02006KT RWY23 04006KT 020V090
LTBA 050220Z 03008KT CAVOK 07/02 Q1029 NOSIG RMK RWY17L 03008KT RWY05 02007KT RWY23 05007KT
LTBA 050150Z 03007KT 360V060 CAVOK 07/01 Q1029 NOSIG RMK RWY17L 03008KT RWY05 03008KT RWY23 05008KT 360V080
LTBA 050120Z 03008KT 9999 FEW040 08/M01 Q1029 NOSIG RMK RWY17L 03010KT RWY05 03008KT RWY23 05008KT
LTBA 050050Z 04008KT 9999 FEW040 08/M00 Q1029 NOSIG RMK RWY17L 03010KT RWY05 03008KT RWY23 05008KT
LTBA 050020Z 04009KT 9999 SCT040 08/M00 Q1029 NOSIG RMK RWY17L 03010KT RWY05 04008KT RWY23 06009KT
LTBA 042350Z 04009KT 020V080 9999 BKN040 08/01 Q1029 NOSIG RMK RWY17L 03010KT 360V060 RWY05 03010KT RWY23 05009KT
LTBA 042320Z 05008KT 9999 BKN040 08/01 Q1029 NOSIG RMK RWY17L 03010KT RWY05 04009KT RWY23 07008KT 030V090
LTBA 042250Z 02009KT 9999 SCT030 08/02 Q1029 NOSIG RMK RWY17L 01010KT RWY05 01010KT RWY23 03010KT
LTBA 042220Z 04010KT 9999 SCT030 08/02 Q1029 NOSIG RMK RWY17L 04008KT RWY05 03009KT RWY23 05008KT
LTBA 042150Z 04011KT 9999 SCT030 07/03 Q1029 NOSIG RMK RWY17L 04010KT RWY05 03012KT RWY23 05012KT
LTBA 042120Z 04011KT 010V070 9999 BKN030 08/03 Q1029 NOSIG RMK RWY17L 05011KT RWY05 03015KT RWY23 05012KT
LTBA 042050Z 02012KT 9999 BKN030 08/03 Q1029 NOSIG RMK RWY17L 02011KT 360V060 RWY05 01011KT RWY23 04012KT